aviador You're here:

KOJC Decoded Metar

OLATHE/EXECUTIVE in KS, USA
Report Time2018-06-24 22:24:00
UTC Time2018-06-24 22:48:28
Flight Rules vfr VFR
Wind110° at 05 kt
W.Decomp.*RWY 18: 1.4 kt HW 4.8 kt LCW
W.Rank110° ranks 26
Current wind is below 110° avg. (6.3)
Visibility9999 m
Phenomena:N/A
Clouds:Few 002 Hf
Expected CloudBase > 800 ft AGL from Temp-Dew spread
CeilingNone
Temp24°C (ISA +11)
Dew Point22°C (89% RH)
QNH1012 hPa
Density Alt2,746 ft
Elevation1,070 ft
Report Wrong Elevation
Raw Report
KOJC 242224Z 11005KT 10SM FEW002 24/22 A2987 RMK AO2 T02440217
$=

Extra information for KOJC:More info

Metar Taf Metar & Taf Last 4 Metars F.Rules Stats Wind Profile Meteogram Temp Stats Airport Information Weather charts Add Link Nearby VenuesMetar ALERT Operation Metar Decoded Social comments

AIRNAV info for KOJC